createdAt,value
2018-07-08T00:00:04.414Z,101293.86
2018-07-08T00:02:32.143Z,101302.63
2018-07-08T00:04:59.783Z,101295.17
2018-07-08T00:07:28.363Z,101261.67
2018-07-08T00:09:56.144Z,101298.84
2018-07-08T00:12:23.779Z,101304.45
2018-07-08T00:14:51.519Z,101303.61
2018-07-08T00:17:19.205Z,101299.18
2018-07-08T00:19:47.470Z,101309.56
2018-07-08T00:22:15.189Z,101309.24
2018-07-08T00:24:42.880Z,101308.92
2018-07-08T00:27:10.563Z,101311.09
2018-07-08T00:29:38.223Z,101308.13
2018-07-08T00:32:06.185Z,101303.16
2018-07-08T00:34:33.867Z,101311.92
2018-07-08T00:37:01.533Z,101315.64
2018-07-08T00:39:29.208Z,101308.59
2018-07-08T00:41:56.935Z,101317.54
2018-07-08T00:44:24.627Z,101316.45
2018-07-08T00:46:52.261Z,101320.63
2018-07-08T00:49:20.318Z,101321.28
2018-07-08T00:51:48.065Z,101319.13
2018-07-08T00:54:16.035Z,101325.05
2018-07-08T00:56:43.707Z,101326.45
2018-07-08T00:59:11.524Z,101330.77
2018-07-08T01:01:39.273Z,101327.57
2018-07-08T01:04:06.917Z,101325.78
2018-07-08T01:06:34.640Z,101322.35
2018-07-08T01:09:02.520Z,101315.58
2018-07-08T01:11:30.223Z,101321.48
2018-07-08T01:13:57.929Z,101326.89
2018-07-08T01:16:25.639Z,101328.03
2018-07-08T01:18:53.268Z,101324.90
2018-07-08T01:21:21.060Z,101321.63
2018-07-08T01:23:48.697Z,101326.16
2018-07-08T01:26:16.442Z,101280.33
2018-07-08T01:28:44.180Z,101326.23
2018-07-08T01:31:12.587Z,101324.66
2018-07-08T01:33:41.310Z,101322.69
2018-07-08T01:36:09.562Z,101323.28
2018-07-08T01:38:37.224Z,101318.86
2018-07-08T01:41:05.109Z,101322.92
2018-07-08T01:43:32.819Z,101318.63
2018-07-08T01:46:00.492Z,101320.89
2018-07-08T01:48:28.142Z,101325.83
2018-07-08T01:50:55.795Z,101328.50
2018-07-08T01:53:23.924Z,101330.47
2018-07-08T01:55:51.655Z,101334.17
2018-07-08T01:58:19.480Z,101331.77
2018-07-08T02:00:47.525Z,101336.23
2018-07-08T02:03:15.243Z,101338.50
2018-07-08T02:05:42.910Z,101337.64
2018-07-08T02:08:10.623Z,101335.23
2018-07-08T02:10:39.252Z,101337.57
2018-07-08T02:13:06.963Z,101341.73
2018-07-08T02:15:35.632Z,101339.33
2018-07-08T02:18:03.455Z,101347.33
2018-07-08T02:20:31.157Z,101351.33
2018-07-08T02:22:58.807Z,101346.20
2018-07-08T02:25:26.897Z,101357.50
2018-07-08T02:27:54.646Z,101352.73
2018-07-08T02:30:22.287Z,101354.14
2018-07-08T02:32:49.910Z,101356.50
2018-07-08T02:35:17.595Z,101357.27
2018-07-08T02:37:45.281Z,101354.70
2018-07-08T02:40:13.893Z,101356.87
2018-07-08T02:42:41.677Z,101357.44
2018-07-08T02:45:09.448Z,101352.87
2018-07-08T02:47:37.506Z,101355.30
2018-07-08T02:50:05.216Z,101360.01
2018-07-08T02:52:33.008Z,101359.14
2018-07-08T02:55:00.693Z,101358.84
2018-07-08T02:57:28.391Z,101356.58
2018-07-08T02:59:56.098Z,101352.00
2018-07-08T03:02:23.713Z,101357.17
2018-07-08T03:04:51.402Z,101361.81
2018-07-08T03:07:19.999Z,101362.18
2018-07-08T03:09:47.718Z,101356.23
2018-07-08T03:12:15.701Z,101367.14
2018-07-08T03:14:43.330Z,101359.34
2018-07-08T03:17:11.406Z,101354.66
2018-07-08T03:19:39.049Z,101353.98
2018-07-08T03:22:06.801Z,101359.97
2018-07-08T03:24:34.481Z,101358.09
2018-07-08T03:27:02.199Z,101356.23
2018-07-08T03:29:29.907Z,101360.67
2018-07-08T03:31:57.519Z,101355.17
2018-07-08T03:34:25.182Z,101348.34
2018-07-08T03:36:52.779Z,101353.56
2018-07-08T03:39:20.492Z,101356.97
2018-07-08T03:41:48.149Z,101353.94
2018-07-08T03:44:15.727Z,101355.72
2018-07-08T03:46:43.414Z,101350.45
2018-07-08T03:49:11.073Z,101352.23
2018-07-08T03:51:38.704Z,101347.53
2018-07-08T03:54:30.971Z,101349.15
2018-07-08T03:56:58.595Z,101339.77
2018-07-08T03:59:26.230Z,101344.49
2018-07-08T04:01:53.920Z,101339.56
2018-07-08T04:04:22.487Z,101330.84
2018-07-08T04:06:50.195Z,101343.25
2018-07-08T04:09:18.638Z,101342.77
2018-07-08T04:11:46.749Z,101348.09
2018-07-08T04:14:14.459Z,101345.27
2018-07-08T04:16:42.090Z,101337.16
2018-07-08T04:19:09.794Z,101343.84
2018-07-08T04:21:37.443Z,101342.94
2018-07-08T04:24:05.100Z,101341.00
2018-07-08T04:26:32.827Z,101336.72
2018-07-08T04:29:00.467Z,101334.97
2018-07-08T04:31:28.120Z,101336.34
2018-07-08T04:33:55.749Z,101339.52
2018-07-08T04:36:23.386Z,101335.13
2018-07-08T04:38:51.100Z,101332.74
2018-07-08T04:41:19.197Z,101333.95
2018-07-08T04:43:46.825Z,101325.27
2018-07-08T04:48:48.995Z,101329.73
2018-07-08T04:51:16.683Z,101327.64
2018-07-08T04:53:44.321Z,101319.22
2018-07-08T04:56:12.113Z,101320.73
2018-07-08T04:58:39.819Z,101315.05
2018-07-08T05:01:07.535Z,101314.64
2018-07-08T05:03:35.259Z,101319.14
2018-07-08T05:06:02.905Z,101318.66
2018-07-08T05:08:30.560Z,101325.35
2018-07-08T05:10:58.324Z,101322.20
2018-07-08T05:13:26.083Z,101327.12
2018-07-08T05:15:53.992Z,101314.60
2018-07-08T05:18:28.701Z,101312.75
2018-07-08T05:20:56.825Z,101312.34
2018-07-08T05:23:24.432Z,101311.33
2018-07-08T05:25:52.075Z,101313.05
2018-07-08T05:28:20.167Z,101320.02
2018-07-08T05:30:47.840Z,101317.39
2018-07-08T05:33:15.591Z,101314.56
2018-07-08T05:35:43.282Z,101308.96
2018-07-08T05:38:10.911Z,101307.69
2018-07-08T05:40:38.851Z,101312.23
2018-07-08T05:43:06.512Z,101309.08
2018-07-08T05:45:34.215Z,101319.46
2018-07-08T05:48:02.029Z,101305.90
2018-07-08T05:50:29.650Z,101314.63
2018-07-08T05:52:57.317Z,101312.96
2018-07-08T05:55:24.968Z,101307.05
2018-07-08T05:57:52.660Z,101317.47
2018-07-08T06:00:20.391Z,101316.53
2018-07-08T06:02:48.107Z,101311.47
2018-07-08T06:05:15.928Z,101320.67
2018-07-08T06:07:43.660Z,101317.30
2018-07-08T06:10:11.326Z,101321.69
2018-07-08T06:12:38.993Z,101326.62
2018-07-08T06:15:06.692Z,101315.81
2018-07-08T06:17:34.400Z,101310.00
2018-07-08T06:20:02.098Z,101311.03
2018-07-08T06:22:29.756Z,101311.67
2018-07-08T06:24:57.410Z,101303.91
2018-07-08T06:27:25.106Z,101304.10
2018-07-08T06:29:52.861Z,101304.95
2018-07-08T06:32:20.512Z,101305.20
2018-07-08T06:34:48.223Z,101302.66
2018-07-08T06:37:15.992Z,101305.64
2018-07-08T06:39:43.767Z,101304.05
2018-07-08T06:42:11.543Z,101299.45
2018-07-08T06:44:39.262Z,101297.70
2018-07-08T06:47:08.194Z,101301.98
2018-07-08T06:49:35.916Z,101296.68
2018-07-08T06:52:03.651Z,101299.16
2018-07-08T06:54:31.665Z,101291.88
2018-07-08T06:57:00.165Z,101295.97
2018-07-08T06:59:27.926Z,101290.83
2018-07-08T07:01:55.641Z,101295.47
2018-07-08T07:04:23.377Z,101291.89
2018-07-08T07:06:51.497Z,101299.22
2018-07-08T07:09:19.526Z,101292.64
2018-07-08T07:11:47.175Z,101286.91
2018-07-08T07:14:14.875Z,101287.70
2018-07-08T07:16:43.033Z,101287.00
2018-07-08T07:19:10.799Z,101285.34
2018-07-08T07:21:38.470Z,101273.86
2018-07-08T07:24:06.327Z,101274.86
2018-07-08T07:26:34.194Z,101279.39
2018-07-08T07:29:02.216Z,101273.79
2018-07-08T07:31:29.995Z,101270.44
2018-07-08T07:33:57.839Z,101282.10
2018-07-08T07:36:25.548Z,101278.86
2018-07-08T07:38:53.783Z,101277.36
2018-07-08T07:41:21.491Z,101274.06
2018-07-08T07:43:49.327Z,101273.52
2018-07-08T07:46:17.208Z,101270.92
2018-07-08T07:48:44.916Z,101264.77
2018-07-08T07:51:13.497Z,101265.27
2018-07-08T07:53:41.206Z,101273.01
2018-07-08T07:56:08.774Z,101273.56
2018-07-08T07:58:36.327Z,101277.14
2018-07-08T08:01:03.941Z,101271.77
2018-07-08T08:03:31.630Z,101269.60
2018-07-08T08:05:59.215Z,101265.70
2018-07-08T08:08:26.862Z,101266.76
2018-07-08T08:10:54.529Z,101267.80
2018-07-08T08:13:22.154Z,101268.80
2018-07-08T08:15:49.725Z,101270.22
2018-07-08T08:18:17.320Z,101275.36
2018-07-08T08:20:44.882Z,101273.52
2018-07-08T08:23:12.435Z,101274.88
2018-07-08T08:25:40.093Z,101278.64
2018-07-08T08:28:07.653Z,101269.41
2018-07-08T08:30:35.281Z,101270.02
2018-07-08T08:33:02.887Z,101269.50
2018-07-08T08:35:30.484Z,101264.72
2018-07-08T08:37:58.078Z,101265.57
2018-07-08T08:40:26.998Z,101273.07
2018-07-08T08:42:54.951Z,101274.42
2018-07-08T08:45:23.875Z,101267.55
2018-07-08T08:47:51.454Z,101267.45
2018-07-08T08:50:19.151Z,101268.41
2018-07-08T08:52:46.899Z,101265.95
2018-07-08T08:55:14.694Z,101259.35
2018-07-08T08:57:42.299Z,101255.72
2018-07-08T09:00:13.839Z,101252.73
2018-07-08T09:02:41.487Z,101253.53
2018-07-08T09:05:09.222Z,101252.29
2018-07-08T09:07:37.095Z,101245.32
2018-07-08T09:10:04.739Z,101252.06
2018-07-08T09:12:32.335Z,101247.25
2018-07-08T09:14:59.979Z,101247.10
2018-07-08T09:17:27.575Z,101239.72
2018-07-08T09:19:55.151Z,101241.35
2018-07-08T09:22:22.757Z,101235.39
2018-07-08T09:24:50.412Z,101242.81
2018-07-08T09:27:18.089Z,101236.31
2018-07-08T09:29:45.692Z,101229.50
2018-07-08T09:32:13.368Z,101233.37
2018-07-08T09:34:41.047Z,101234.97
2018-07-08T09:37:08.643Z,101228.48
2018-07-08T09:39:36.288Z,101231.98
2018-07-08T09:42:03.967Z,101230.59
2018-07-08T09:44:31.535Z,101227.64
2018-07-08T09:46:59.299Z,101226.83
2018-07-08T09:49:26.922Z,101225.69
2018-07-08T09:51:54.524Z,101227.52
2018-07-08T09:54:22.210Z,101216.73
2018-07-08T09:56:49.820Z,101225.32
2018-07-08T09:59:17.430Z,101222.39
2018-07-08T10:01:47.802Z,101226.44
2018-07-08T10:04:17.475Z,101218.72
2018-07-08T10:06:45.875Z,101218.09
2018-07-08T10:09:14.886Z,101215.41
2018-07-08T10:11:42.645Z,101211.16
2018-07-08T10:14:11.564Z,101213.48
2018-07-08T10:16:39.511Z,101212.20
2018-07-08T10:19:07.439Z,101201.53
2018-07-08T10:21:35.158Z,101201.88
2018-07-08T10:24:02.903Z,101204.67
2018-07-08T10:26:30.551Z,101199.91
2018-07-08T10:28:58.159Z,101197.42
2018-07-08T10:31:37.094Z,101201.88
2018-07-08T10:34:04.673Z,101199.92
2018-07-08T10:36:32.330Z,101206.42
2018-07-08T10:38:59.992Z,101199.12
2018-07-08T10:41:27.607Z,101205.10
2018-07-08T10:43:55.266Z,101197.48
2018-07-08T10:46:22.837Z,101193.84
2018-07-08T10:48:50.643Z,101184.45
2018-07-08T10:51:18.363Z,101181.47
2018-07-08T10:53:45.951Z,101194.80
2018-07-08T10:56:13.569Z,101195.08
2018-07-08T10:58:41.237Z,101185.38
2018-07-08T11:01:08.905Z,101183.96
2018-07-08T11:03:36.543Z,101187.52
2018-07-08T11:06:04.164Z,101179.74
2018-07-08T11:08:31.777Z,101188.38
2018-07-08T11:10:59.388Z,101180.00
2018-07-08T11:13:27.037Z,101170.90
2018-07-08T11:15:54.970Z,101176.03
2018-07-08T11:18:22.794Z,101170.42
2018-07-08T11:20:56.546Z,101166.77
2018-07-08T11:23:24.922Z,101173.25
2018-07-08T11:25:54.259Z,101183.78
2018-07-08T11:28:23.547Z,101179.18
2018-07-08T11:30:51.284Z,101175.27
2018-07-08T11:33:19.000Z,101177.66
2018-07-08T11:35:46.749Z,101178.51
2018-07-08T11:38:14.444Z,101168.79
2018-07-08T11:40:42.099Z,101167.75
2018-07-08T11:43:09.803Z,101175.58
2018-07-08T11:45:37.383Z,101178.73
2018-07-08T11:48:05.188Z,101168.38
2018-07-08T11:50:32.869Z,101167.61
